Meteo Giornale » Osservazioni meteo Gran Bretagna » Spadeadam

ore: 07:50 - Osservazioni Meteo Spadeadam
Lat. 55° 3' N Lon. 2° 33' W Alt. 325 metri s.l.m.

coperto Europe/London

17 °C

Coperto

Temp. 24 Ore

15 °C

21 °C

Ovest/Sud-Ovest

20.3 Km/h

Dew point 16 °C

Umidità 93 %

Visibilità  10 Km

Il sole sorge alle ore 05:02

Il sole tramonta alle ore 21:31

Data e Ora Cielo e Fenomeni T °C DP °C Um. % Pres. hPa Vis. km Vento km/h
Oggi h: 07:50 coperto Coperto 17 16 93 1014 10 O/SO 20.3
Oggi h: 06:50 coperto Coperto 17 16 93 1014 10 O/SO 16.7
Oggi h: 05:50 foschia Foschia 17 16 93 1014 9 O/SO 11.1
Oggi h: 04:50 foschia Foschia 16 16 100 1014 6 O/SO 9.3
Oggi h: 03:50 foschia Foschia 15 15 100 1014 5 SO 7.4
Oggi h: 02:50 molto_nuvoloso Molto Nuvoloso 15 15 100 1014 2 O 7.4
Oggi h: 01:50 foschia Foschia 16 15 93 1015 3 O/SO 11.1
Oggi h: 00:50 foschia Foschia 16 16 100 1015 4 O 20.3
Ieri h: 23:50 molto_nuvoloso Molto Nuvoloso 16 16 100 1015 2 O 16.7
Ieri h: 22:50 foschia Foschia 16 16 100 1015 5 O 14.8
Ieri h: 21:50 foschia Foschia 16 16 100 1015 5 O 18.5
Ieri h: 20:50 nuvoloso Nuvoloso 17 16 93 1015 10 O 18.5
Ieri h: 19:50 nuvoloso Nuvoloso 18 16 88 1014 10 O 20.3
Ieri h: 18:50 poco_nuvoloso Poco Nuvoloso 20 17 82 1014 10 O 24
Ieri h: 17:50 molto_nuvoloso Molto Nuvoloso 21 16 73 1014 10 O 20.3
Ieri h: 16:50 coperto Coperto 21 17 77 1014 10 O 22.2
Ieri h: 15:50 molto_nuvoloso Molto Nuvoloso 21 17 77 1015 10 O 22.2
Ieri h: 14:50 molto_nuvoloso Molto Nuvoloso 20 17 82 1015 10 O 25.9
Ieri h: 12:50 coperto Coperto 17 16 93 1015 10 O 22.2
Ieri h: 11:50 coperto Coperto 17 16 93 1015 10 O 22.2
Ieri h: 10:50 coperto Coperto 15 15 100 1015 10 O 24
Ieri h: 09:50 coperto Coperto 15 15 100 1014 3 O 24